This is the latest recevied weather packets stored in our database for station/object OM3WYM-13. If no packets are shown the sender has not sent any weather packets the latest 10 day(s).
| Time | Temp. | Humidity | Pressure | Rain* | Wind** | Luminosity | Snow |
|---|---|---|---|---|---|---|---|
| 1778176208 | 17.22° C | 66% | 1012.2 hPa | - | - | - | - |
| 1778175608 | 17.78° C | 65% | 1012.2 hPa | - | - | - | - |
| 1778175008 | 17.78° C | 64% | 1012.2 hPa | - | - | - | - |
| 1778174408 | 18.33° C | 63% | 1012.3 hPa | - | - | - | - |
| 1778173808 | 18.33° C | 62% | 1012.1 hPa | - | - | - | - |
| 1778173208 | 18.33° C | 61% | 1012 hPa | - | - | - | - |
| 1778172608 | 18.89° C | 59% | 1011.8 hPa | - | - | - | - |
| 1778172008 | 19.44° C | 57% | 1011.8 hPa | - | - | - | - |
| 1778171408 | 20° C | 56% | 1011.8 hPa | - | - | - | - |
| 1778170808 | 20.56° C | 53% | 1011.6 hPa | - | - | - | - |
| 1778170208 | 20° C | 55% | 1011.7 hPa | - | - | - | - |
| 1778169608 | 21.11° C | 52% | 1011.5 hPa | - | - | - | - |
| 1778169008 | 22.78° C | 47% | 1011.4 hPa | - | - | - | - |
| 1778168408 | 23.89° C | 46% | 1011.4 hPa | - | - | - | - |
| 1778167808 | 24.44° C | 44% | 1011.4 hPa | - | - | - | - |
| 1778167208 | 24.44° C | 43% | 1011.6 hPa | - | - | - | - |
| 1778166608 | 23.33° C | 46% | 1011.7 hPa | - | - | - | - |
| 1778166008 | 21.67° C | 51% | 1012 hPa | - | - | - | - |
| 1778165408 | 20.56° C | 54% | 1012.1 hPa | - | - | - | - |
| 1778164808 | 19.44° C | 58% | 1012.4 hPa | - | - | - | - |
| 1778164208 | 19.44° C | 59% | 1012.3 hPa | - | - | - | - |
| 1778163608 | 18.89° C | 60% | 1012.4 hPa | - | - | - | - |
| 1778163008 | 18.33° C | 59% | 1012.5 hPa | - | - | - | - |
| 1778162408 | 18.89° C | 59% | 1012.5 hPa | - | - | - | - |
| 1778161808 | 18.89° C | 57% | 1012.4 hPa | - | - | - | - |
* Rain since midnight (hover to see other rain measurements)
** Current wind speed in m/s (hover to see current wind gust speed)